sensor_id;sensor_type;location;lat;lon;timestamp;temperature;humidity
25554;DHT22;13446;50.926;5.332;2022-11-20T00:02:17;5.10;99.90
25554;DHT22;13446;50.926;5.332;2022-11-20T00:04:42;5.00;99.90
25554;DHT22;13446;50.926;5.332;2022-11-20T00:07:08;4.80;99.90
25554;DHT22;13446;50.926;5.332;2022-11-20T00:09:33;4.80;99.90
25554;DHT22;13446;50.926;5.332;2022-11-20T00:11:59;4.90;99.90
25554;DHT22;13446;50.926;5.332;2022-11-20T00:14:24;4.90;99.90
25554;DHT22;13446;50.926;5.332;2022-11-20T00:16:50;5.10;99.90
25554;DHT22;13446;50.926;5.332;2022-11-20T00:19:16;5.10;99.90
25554;DHT22;13446;50.926;5.332;2022-11-20T00:21:41;5.10;99.90
25554;DHT22;13446;50.926;5.332;2022-11-20T00:24:10;5.20;99.90
25554;DHT22;13446;50.926;5.332;2022-11-20T00:26:36;5.20;99.90
25554;DHT22;13446;50.926;5.332;2022-11-20T00:29:02;5.20;99.90
25554;DHT22;13446;50.926;5.332;2022-11-20T00:31:28;5.20;99.90
25554;DHT22;13446;50.926;5.332;2022-11-20T00:33:54;5.30;99.90
25554;DHT22;13446;50.926;5.332;2022-11-20T00:36:21;5.30;99.90
25554;DHT22;13446;50.926;5.332;2022-11-20T00:38:46;5.30;99.90
25554;DHT22;13446;50.926;5.332;2022-11-20T00:41:14;5.50;99.90
25554;DHT22;13446;50.926;5.332;2022-11-20T00:43:40;5.30;99.90
25554;DHT22;13446;50.926;5.332;2022-11-20T00:46:07;5.30;99.90
25554;DHT22;13446;50.926;5.332;2022-11-20T00:48:32;5.30;99.90
25554;DHT22;13446;50.926;5.332;2022-11-20T00:50:58;5.10;99.90
25554;DHT22;13446;50.926;5.332;2022-11-20T00:53:24;5.10;99.90
25554;DHT22;13446;50.926;5.332;2022-11-20T00:55:56;5.10;99.90
25554;DHT22;13446;50.926;5.332;2022-11-20T00:58:22;5.50;99.90
25554;DHT22;13446;50.926;5.332;2022-11-20T01:00:48;5.40;99.90
25554;DHT22;13446;50.926;5.332;2022-11-20T01:03:15;5.30;99.90
25554;DHT22;13446;50.926;5.332;2022-11-20T01:05:41;5.10;99.90
25554;DHT22;13446;50.926;5.332;2022-11-20T01:08:07;5.00;99.90
25554;DHT22;13446;50.926;5.332;2022-11-20T01:10:32;5.10;99.90
25554;DHT22;13446;50.926;5.332;2022-11-20T01:12:57;5.00;99.90
25554;DHT22;13446;50.926;5.332;2022-11-20T01:15:41;5.20;99.90
25554;DHT22;13446;50.926;5.332;2022-11-20T01:18:07;5.40;99.90
25554;DHT22;13446;50.926;5.332;2022-11-20T01:20:36;5.60;99.90
25554;DHT22;13446;50.926;5.332;2022-11-20T01:23:02;5.70;99.90
25554;DHT22;13446;50.926;5.332;2022-11-20T01:25:28;5.40;99.90
25554;DHT22;13446;50.926;5.332;2022-11-20T01:27:53;5.40;99.90
25554;DHT22;13446;50.926;5.332;2022-11-20T01:30:19;5.30;99.90
25554;DHT22;13446;50.926;5.332;2022-11-20T01:32:44;5.30;99.90
25554;DHT22;13446;50.926;5.332;2022-11-20T01:35:12;5.30;99.90
25554;DHT22;13446;50.926;5.332;2022-11-20T01:37:38;5.50;99.90
25554;DHT22;13446;50.926;5.332;2022-11-20T01:40:03;5.50;99.90
25554;DHT22;13446;50.926;5.332;2022-11-20T01:42:29;5.70;99.90
25554;DHT22;13446;50.926;5.332;2022-11-20T01:47:57;5.90;99.90
25554;DHT22;13446;50.926;5.332;2022-11-20T01:50:24;5.70;99.90
25554;DHT22;13446;50.926;5.332;2022-11-20T01:52:59;5.60;99.90
25554;DHT22;13446;50.926;5.332;2022-11-20T01:55:27;5.70;99.90
25554;DHT22;13446;50.926;5.332;2022-11-20T01:57:55;5.80;99.90
25554;DHT22;13446;50.926;5.332;2022-11-20T02:00:20;5.70;99.90
25554;DHT22;13446;50.926;5.332;2022-11-20T02:02:51;5.60;99.90
25554;DHT22;13446;50.926;5.332;2022-11-20T02:05:22;5.60;99.90
25554;DHT22;13446;50.926;5.332;2022-11-20T02:07:48;5.50;99.90
25554;DHT22;13446;50.926;5.332;2022-11-20T02:10:14;5.60;99.90
25554;DHT22;13446;50.926;5.332;2022-11-20T02:12:40;5.80;99.90
25554;DHT22;13446;50.926;5.332;2022-11-20T02:15:24;5.80;99.90
25554;DHT22;13446;50.926;5.332;2022-11-20T02:17:50;5.70;99.90
25554;DHT22;13446;50.926;5.332;2022-11-20T02:20:15;5.60;99.90
25554;DHT22;13446;50.926;5.332;2022-11-20T02:22:44;5.70;99.90
25554;DHT22;13446;50.926;5.332;2022-11-20T02:25:13;5.70;99.90
25554;DHT22;13446;50.926;5.332;2022-11-20T02:27:39;5.70;99.90
25554;DHT22;13446;50.926;5.332;2022-11-20T02:30:05;5.70;99.90
25554;DHT22;13446;50.926;5.332;2022-11-20T02:32:34;5.70;99.90
25554;DHT22;13446;50.926;5.332;2022-11-20T02:35:08;5.70;99.90
25554;DHT22;13446;50.926;5.332;2022-11-20T02:37:34;5.60;99.90
25554;DHT22;13446;50.926;5.332;2022-11-20T02:40:01;5.60;99.90
25554;DHT22;13446;50.926;5.332;2022-11-20T02:42:26;5.60;99.90
25554;DHT22;13446;50.926;5.332;2022-11-20T02:44:52;5.50;99.90
25554;DHT22;13446;50.926;5.332;2022-11-20T02:47:17;5.30;99.90
25554;DHT22;13446;50.926;5.332;2022-11-20T02:49:43;5.40;99.90
25554;DHT22;13446;50.926;5.332;2022-11-20T02:52:08;5.40;99.90
25554;DHT22;13446;50.926;5.332;2022-11-20T02:54:34;5.60;99.90
25554;DHT22;13446;50.926;5.332;2022-11-20T02:56:59;5.60;99.90
25554;DHT22;13446;50.926;5.332;2022-11-20T02:59:25;5.60;99.90
25554;DHT22;13446;50.926;5.332;2022-11-20T03:01:50;5.80;99.90
25554;DHT22;13446;50.926;5.332;2022-11-20T03:04:16;5.80;99.90
25554;DHT22;13446;50.926;5.332;2022-11-20T03:06:41;5.70;99.90
25554;DHT22;13446;50.926;5.332;2022-11-20T03:09:07;5.60;99.90
25554;DHT22;13446;50.926;5.332;2022-11-20T03:11:32;5.40;99.90
25554;DHT22;13446;50.926;5.332;2022-11-20T03:14:01;5.30;99.90
25554;DHT22;13446;50.926;5.332;2022-11-20T03:16:26;5.40;99.90
25554;DHT22;13446;50.926;5.332;2022-11-20T03:18:52;5.50;99.90
25554;DHT22;13446;50.926;5.332;2022-11-20T03:21:18;5.50;99.90
25554;DHT22;13446;50.926;5.332;2022-11-20T03:23:43;5.70;99.90
25554;DHT22;13446;50.926;5.332;2022-11-20T03:28:38;5.70;99.90
25554;DHT22;13446;50.926;5.332;2022-11-20T03:31:11;5.80;99.90
25554;DHT22;13446;50.926;5.332;2022-11-20T03:33:37;5.80;99.90
25554;DHT22;13446;50.926;5.332;2022-11-20T03:36:03;5.60;99.90
25554;DHT22;13446;50.926;5.332;2022-11-20T03:38:30;5.70;99.90
25554;DHT22;13446;50.926;5.332;2022-11-20T03:41:04;5.70;99.90
25554;DHT22;13446;50.926;5.332;2022-11-20T03:43:29;5.70;99.90
25554;DHT22;13446;50.926;5.332;2022-11-20T03:45:55;5.80;99.90
25554;DHT22;13446;50.926;5.332;2022-11-20T03:48:21;5.70;99.90
25554;DHT22;13446;50.926;5.332;2022-11-20T03:50:47;5.60;99.90
25554;DHT22;13446;50.926;5.332;2022-11-20T03:53:14;5.60;99.90
25554;DHT22;13446;50.926;5.332;2022-11-20T03:55:39;5.60;99.90
25554;DHT22;13446;50.926;5.332;2022-11-20T03:58:05;5.60;99.90
25554;DHT22;13446;50.926;5.332;2022-11-20T04:00:31;5.60;99.90
25554;DHT22;13446;50.926;5.332;2022-11-20T04:03:02;5.60;99.90
25554;DHT22;13446;50.926;5.332;2022-11-20T04:05:27;5.70;99.90
25554;DHT22;13446;50.926;5.332;2022-11-20T04:07:53;5.70;99.90
25554;DHT22;13446;50.926;5.332;2022-11-20T04:10:19;5.70;99.90
25554;DHT22;13446;50.926;5.332;2022-11-20T04:12:45;5.80;99.90
25554;DHT22;13446;50.926;5.332;2022-11-20T04:15:10;5.80;99.90
25554;DHT22;13446;50.926;5.332;2022-11-20T04:17:36;5.60;99.90
25554;DHT22;13446;50.926;5.332;2022-11-20T04:20:02;5.60;99.90
25554;DHT22;13446;50.926;5.332;2022-11-20T04:22:28;5.60;99.90
25554;DHT22;13446;50.926;5.332;2022-11-20T04:24:53;5.40;99.90
25554;DHT22;13446;50.926;5.332;2022-11-20T04:27:19;5.30;99.90
25554;DHT22;13446;50.926;5.332;2022-11-20T04:29:44;5.50;99.90
25554;DHT22;13446;50.926;5.332;2022-11-20T04:32:10;5.50;99.90
25554;DHT22;13446;50.926;5.332;2022-11-20T04:34:35;5.50;99.90
25554;DHT22;13446;50.926;5.332;2022-11-20T04:37:01;5.60;99.90
25554;DHT22;13446;50.926;5.332;2022-11-20T04:39:26;5.60;99.90
25554;DHT22;13446;50.926;5.332;2022-11-20T04:41:52;5.40;99.90
25554;DHT22;13446;50.926;5.332;2022-11-20T04:44:37;5.20;99.90
25554;DHT22;13446;50.926;5.332;2022-11-20T04:47:04;5.30;99.90
25554;DHT22;13446;50.926;5.332;2022-11-20T04:49:30;5.40;99.90
25554;DHT22;13446;50.926;5.332;2022-11-20T04:51:57;5.60;99.90
25554;DHT22;13446;50.926;5.332;2022-11-20T04:54:22;5.50;99.90
25554;DHT22;13446;50.926;5.332;2022-11-20T04:56:48;5.60;99.90
25554;DHT22;13446;50.926;5.332;2022-11-20T04:59:13;5.50;99.90
25554;DHT22;13446;50.926;5.332;2022-11-20T05:01:39;5.50;99.90
25554;DHT22;13446;50.926;5.332;2022-11-20T05:04:04;5.60;99.90
25554;DHT22;13446;50.926;5.332;2022-11-20T05:06:32;5.60;99.90
25554;DHT22;13446;50.926;5.332;2022-11-20T05:08:58;5.60;99.90
25554;DHT22;13446;50.926;5.332;2022-11-20T05:11:23;5.50;99.90
25554;DHT22;13446;50.926;5.332;2022-11-20T05:13:50;5.50;99.90
25554;DHT22;13446;50.926;5.332;2022-11-20T05:16:19;5.50;99.90
25554;DHT22;13446;50.926;5.332;2022-11-20T05:18:45;5.60;99.90
25554;DHT22;13446;50.926;5.332;2022-11-20T05:21:10;5.60;99.90
25554;DHT22;13446;50.926;5.332;2022-11-20T05:23:36;5.60;99.90
25554;DHT22;13446;50.926;5.332;2022-11-20T05:26:02;5.40;99.90
25554;DHT22;13446;50.926;5.332;2022-11-20T05:28:28;5.60;99.90
25554;DHT22;13446;50.926;5.332;2022-11-20T05:30:54;5.60;99.90
25554;DHT22;13446;50.926;5.332;2022-11-20T05:33:19;5.80;99.90
25554;DHT22;13446;50.926;5.332;2022-11-20T05:35:45;5.70;99.90
25554;DHT22;13446;50.926;5.332;2022-11-20T05:38:11;5.60;99.90
25554;DHT22;13446;50.926;5.332;2022-11-20T05:40:36;5.50;99.90
25554;DHT22;13446;50.926;5.332;2022-11-20T05:43:02;5.40;99.90
25554;DHT22;13446;50.926;5.332;2022-11-20T05:45:27;5.40;99.90
25554;DHT22;13446;50.926;5.332;2022-11-20T05:47:53;5.50;99.90
25554;DHT22;13446;50.926;5.332;2022-11-20T05:50:18;5.60;99.90
25554;DHT22;13446;50.926;5.332;2022-11-20T05:52:44;5.60;99.90
25554;DHT22;13446;50.926;5.332;2022-11-20T05:55:09;5.50;99.90
25554;DHT22;13446;50.926;5.332;2022-11-20T05:57:35;5.50;99.90
25554;DHT22;13446;50.926;5.332;2022-11-20T06:00:01;5.60;99.90
25554;DHT22;13446;50.926;5.332;2022-11-20T06:02:26;5.70;99.90
25554;DHT22;13446;50.926;5.332;2022-11-20T06:04:52;5.80;99.90
25554;DHT22;13446;50.926;5.332;2022-11-20T06:07:17;5.80;99.90
25554;DHT22;13446;50.926;5.332;2022-11-20T06:09:43;5.90;99.90
25554;DHT22;13446;50.926;5.332;2022-11-20T06:12:08;5.80;99.90
25554;DHT22;13446;50.926;5.332;2022-11-20T06:14:34;5.80;99.90
25554;DHT22;13446;50.926;5.332;2022-11-20T06:16:59;5.80;99.90
25554;DHT22;13446;50.926;5.332;2022-11-20T06:19:25;5.60;99.90
25554;DHT22;13446;50.926;5.332;2022-11-20T06:21:51;5.80;99.90
25554;DHT22;13446;50.926;5.332;2022-11-20T06:24:16;5.80;99.90
25554;DHT22;13446;50.926;5.332;2022-11-20T06:26:42;5.80;99.90
25554;DHT22;13446;50.926;5.332;2022-11-20T06:29:07;5.80;99.90
25554;DHT22;13446;50.926;5.332;2022-11-20T06:31:33;5.80;99.90
25554;DHT22;13446;50.926;5.332;2022-11-20T06:34:00;5.90;99.90
25554;DHT22;13446;50.926;5.332;2022-11-20T06:36:26;5.80;99.90
25554;DHT22;13446;50.926;5.332;2022-11-20T06:38:51;5.90;99.90
25554;DHT22;13446;50.926;5.332;2022-11-20T06:41:18;5.80;99.90
25554;DHT22;13446;50.926;5.332;2022-11-20T06:43:44;5.80;99.90
25554;DHT22;13446;50.926;5.332;2022-11-20T06:46:11;5.90;99.90
25554;DHT22;13446;50.926;5.332;2022-11-20T06:48:37;5.90;99.90
25554;DHT22;13446;50.926;5.332;2022-11-20T06:51:03;6.00;99.90
25554;DHT22;13446;50.926;5.332;2022-11-20T06:53:29;6.10;99.90
25554;DHT22;13446;50.926;5.332;2022-11-20T06:55:55;6.10;99.90
25554;DHT22;13446;50.926;5.332;2022-11-20T06:58:21;6.10;99.90
25554;DHT22;13446;50.926;5.332;2022-11-20T07:00:46;6.00;99.90
25554;DHT22;13446;50.926;5.332;2022-11-20T07:03:12;5.80;99.90
25554;DHT22;13446;50.926;5.332;2022-11-20T07:05:37;5.70;99.90
25554;DHT22;13446;50.926;5.332;2022-11-20T07:08:04;5.70;99.90
25554;DHT22;13446;50.926;5.332;2022-11-20T07:10:30;5.70;99.90
25554;DHT22;13446;50.926;5.332;2022-11-20T07:12:55;5.90;99.90
25554;DHT22;13446;50.926;5.332;2022-11-20T07:15:22;5.90;99.90
25554;DHT22;13446;50.926;5.332;2022-11-20T07:17:48;5.80;99.90
25554;DHT22;13446;50.926;5.332;2022-11-20T07:20:14;5.80;99.90
25554;DHT22;13446;50.926;5.332;2022-11-20T07:22:39;5.80;99.90
25554;DHT22;13446;50.926;5.332;2022-11-20T07:25:05;5.80;99.90
25554;DHT22;13446;50.926;5.332;2022-11-20T07:27:31;5.80;99.90
25554;DHT22;13446;50.926;5.332;2022-11-20T07:29:56;5.80;99.90
25554;DHT22;13446;50.926;5.332;2022-11-20T07:32:22;5.70;99.90
25554;DHT22;13446;50.926;5.332;2022-11-20T07:34:47;5.80;99.90
25554;DHT22;13446;50.926;5.332;2022-11-20T07:37:13;5.90;99.90
25554;DHT22;13446;50.926;5.332;2022-11-20T07:39:39;6.00;99.90
25554;DHT22;13446;50.926;5.332;2022-11-20T07:42:05;6.30;99.90
25554;DHT22;13446;50.926;5.332;2022-11-20T07:44:31;6.20;99.90
25554;DHT22;13446;50.926;5.332;2022-11-20T07:46:56;5.90;99.90
25554;DHT22;13446;50.926;5.332;2022-11-20T07:49:22;5.90;99.90
25554;DHT22;13446;50.926;5.332;2022-11-20T07:51:50;5.90;99.90
25554;DHT22;13446;50.926;5.332;2022-11-20T07:54:15;5.90;99.90
25554;DHT22;13446;50.926;5.332;2022-11-20T07:56:41;5.90;99.90
25554;DHT22;13446;50.926;5.332;2022-11-20T07:59:06;6.00;99.90
25554;DHT22;13446;50.926;5.332;2022-11-20T08:01:32;6.20;99.90
25554;DHT22;13446;50.926;5.332;2022-11-20T08:03:58;6.40;99.90
25554;DHT22;13446;50.926;5.332;2022-11-20T08:06:23;6.50;99.90
25554;DHT22;13446;50.926;5.332;2022-11-20T08:08:50;6.50;99.90
25554;DHT22;13446;50.926;5.332;2022-11-20T08:11:15;6.60;99.90
25554;DHT22;13446;50.926;5.332;2022-11-20T08:13:59;6.50;99.90
25554;DHT22;13446;50.926;5.332;2022-11-20T08:16:37;6.50;99.90
25554;DHT22;13446;50.926;5.332;2022-11-20T08:19:03;6.50;99.90
25554;DHT22;13446;50.926;5.332;2022-11-20T08:21:29;6.60;99.90
25554;DHT22;13446;50.926;5.332;2022-11-20T08:23:57;6.70;99.90
25554;DHT22;13446;50.926;5.332;2022-11-20T08:26:23;6.70;99.90
25554;DHT22;13446;50.926;5.332;2022-11-20T08:28:48;7.00;99.90
25554;DHT22;13446;50.926;5.332;2022-11-20T08:31:14;6.90;99.90
25554;DHT22;13446;50.926;5.332;2022-11-20T08:33:40;6.80;99.90
25554;DHT22;13446;50.926;5.332;2022-11-20T08:36:05;6.80;99.90
25554;DHT22;13446;50.926;5.332;2022-11-20T08:38:32;6.70;99.90
25554;DHT22;13446;50.926;5.332;2022-11-20T08:41:01;6.80;99.90
25554;DHT22;13446;50.926;5.332;2022-11-20T08:43:46;6.70;99.90
25554;DHT22;13446;50.926;5.332;2022-11-20T08:46:12;6.60;99.90
25554;DHT22;13446;50.926;5.332;2022-11-20T08:48:37;6.70;99.90
25554;DHT22;13446;50.926;5.332;2022-11-20T08:51:03;6.50;99.90
25554;DHT22;13446;50.926;5.332;2022-11-20T08:53:28;6.60;99.90
25554;DHT22;13446;50.926;5.332;2022-11-20T08:55:54;6.70;99.90
25554;DHT22;13446;50.926;5.332;2022-11-20T08:58:22;6.80;99.90
25554;DHT22;13446;50.926;5.332;2022-11-20T09:00:48;6.90;99.90
25554;DHT22;13446;50.926;5.332;2022-11-20T09:03:13;7.00;99.90
25554;DHT22;13446;50.926;5.332;2022-11-20T09:05:40;7.10;99.90
25554;DHT22;13446;50.926;5.332;2022-11-20T09:08:06;7.20;99.90
25554;DHT22;13446;50.926;5.332;2022-11-20T09:10:31;7.50;99.90
25554;DHT22;13446;50.926;5.332;2022-11-20T09:12:58;7.50;99.90
25554;DHT22;13446;50.926;5.332;2022-11-20T09:15:24;7.50;99.90
25554;DHT22;13446;50.926;5.332;2022-11-20T09:17:51;7.50;99.90
25554;DHT22;13446;50.926;5.332;2022-11-20T09:20:17;7.40;99.90
25554;DHT22;13446;50.926;5.332;2022-11-20T09:22:42;7.40;99.90
25554;DHT22;13446;50.926;5.332;2022-11-20T09:25:09;7.40;99.90
25554;DHT22;13446;50.926;5.332;2022-11-20T09:27:35;7.30;99.90
25554;DHT22;13446;50.926;5.332;2022-11-20T09:30:01;7.60;99.90
25554;DHT22;13446;50.926;5.332;2022-11-20T09:32:26;7.60;99.90
25554;DHT22;13446;50.926;5.332;2022-11-20T09:34:52;7.60;99.90
25554;DHT22;13446;50.926;5.332;2022-11-20T09:37:17;7.60;99.90
25554;DHT22;13446;50.926;5.332;2022-11-20T09:39:43;7.80;99.90
25554;DHT22;13446;50.926;5.332;2022-11-20T09:45:03;8.00;99.90
25554;DHT22;13446;50.926;5.332;2022-11-20T09:55:47;7.90;99.90
25554;DHT22;13446;50.926;5.332;2022-11-20T09:58:20;7.90;99.90
25554;DHT22;13446;50.926;5.332;2022-11-20T10:00:48;7.80;99.90
25554;DHT22;13446;50.926;5.332;2022-11-20T10:06:10;7.80;99.90
25554;DHT22;13446;50.926;5.332;2022-11-20T10:08:41;8.10;99.90
25554;DHT22;13446;50.926;5.332;2022-11-20T10:21:54;8.10;99.90
25554;DHT22;13446;50.926;5.332;2022-11-20T10:29:33;8.20;99.90
25554;DHT22;13446;50.926;5.332;2022-11-20T10:32:11;8.40;99.90
25554;DHT22;13446;50.926;5.332;2022-11-20T10:34:46;8.50;99.90
25554;DHT22;13446;50.926;5.332;2022-11-20T10:37:16;8.40;99.90
25554;DHT22;13446;50.926;5.332;2022-11-20T10:42:40;8.20;99.90
25554;DHT22;13446;50.926;5.332;2022-11-20T10:47:39;8.40;99.90
25554;DHT22;13446;50.926;5.332;2022-11-20T10:50:05;8.30;99.90
25554;DHT22;13446;50.926;5.332;2022-11-20T11:00:20;8.60;99.90
25554;DHT22;13446;50.926;5.332;2022-11-20T11:02:49;8.60;99.90
25554;DHT22;13446;50.926;5.332;2022-11-20T11:05:33;8.60;99.90
25554;DHT22;13446;50.926;5.332;2022-11-20T11:08:00;8.70;99.90
25554;DHT22;13446;50.926;5.332;2022-11-20T11:10:28;8.80;99.90
25554;DHT22;13446;50.926;5.332;2022-11-20T11:12:55;8.70;99.90
25554;DHT22;13446;50.926;5.332;2022-11-20T11:17:50;8.90;99.90
25554;DHT22;13446;50.926;5.332;2022-11-20T11:20:17;8.90;99.90
25554;DHT22;13446;50.926;5.332;2022-11-20T11:22:50;8.80;99.90
25554;DHT22;13446;50.926;5.332;2022-11-20T11:25:33;8.80;99.90
25554;DHT22;13446;50.926;5.332;2022-11-20T11:28:03;9.00;99.90
25554;DHT22;13446;50.926;5.332;2022-11-20T11:30:40;9.00;99.90
25554;DHT22;13446;50.926;5.332;2022-11-20T11:33:09;9.20;99.90
25554;DHT22;13446;50.926;5.332;2022-11-20T11:35:39;9.40;99.90
25554;DHT22;13446;50.926;5.332;2022-11-20T11:38:12;9.40;99.90
25554;DHT22;13446;50.926;5.332;2022-11-20T11:40:39;9.50;99.90
25554;DHT22;13446;50.926;5.332;2022-11-20T11:43:06;9.60;99.90
25554;DHT22;13446;50.926;5.332;2022-11-20T11:45:53;9.80;99.90
25554;DHT22;13446;50.926;5.332;2022-11-20T11:48:19;10.00;99.90
25554;DHT22;13446;50.926;5.332;2022-11-20T11:50:49;9.90;99.90
25554;DHT22;13446;50.926;5.332;2022-11-20T11:53:18;10.00;99.90
25554;DHT22;13446;50.926;5.332;2022-11-20T11:56:05;10.00;99.90
25554;DHT22;13446;50.926;5.332;2022-11-20T12:03:55;10.30;99.90
25554;DHT22;13446;50.926;5.332;2022-11-20T12:06:24;10.30;99.90
25554;DHT22;13446;50.926;5.332;2022-11-20T12:08:55;10.50;99.90
25554;DHT22;13446;50.926;5.332;2022-11-20T12:11:43;10.50;99.90
25554;DHT22;13446;50.926;5.332;2022-11-20T12:16:37;10.70;99.90
25554;DHT22;13446;50.926;5.332;2022-11-20T12:19:07;10.70;99.90
25554;DHT22;13446;50.926;5.332;2022-11-20T12:27:03;10.90;99.90
25554;DHT22;13446;50.926;5.332;2022-11-20T12:29:40;10.90;99.90
25554;DHT22;13446;50.926;5.332;2022-11-20T12:32:22;10.90;99.90
25554;DHT22;13446;50.926;5.332;2022-11-20T12:37:46;11.00;99.90
25554;DHT22;13446;50.926;5.332;2022-11-20T12:43:01;10.70;99.90
25554;DHT22;13446;50.926;5.332;2022-11-20T12:48:45;10.90;99.90
25554;DHT22;13446;50.926;5.332;2022-11-20T13:02:13;10.80;99.90
25554;DHT22;13446;50.926;5.332;2022-11-20T13:04:49;10.90;99.90
25554;DHT22;13446;50.926;5.332;2022-11-20T13:07:20;10.80;99.90
25554;DHT22;13446;50.926;5.332;2022-11-20T13:09:48;10.80;99.90
25554;DHT22;13446;50.926;5.332;2022-11-20T13:19:38;10.40;99.90
25554;DHT22;13446;50.926;5.332;2022-11-20T13:22:04;10.40;99.90
25554;DHT22;13446;50.926;5.332;2022-11-20T13:24:30;10.50;99.90
25554;DHT22;13446;50.926;5.332;2022-11-20T13:29:36;10.50;99.90
25554;DHT22;13446;50.926;5.332;2022-11-20T13:32:03;10.40;99.90
25554;DHT22;13446;50.926;5.332;2022-11-20T13:34:30;10.30;99.90
25554;DHT22;13446;50.926;5.332;2022-11-20T13:36:56;10.20;99.90
25554;DHT22;13446;50.926;5.332;2022-11-20T13:39:30;10.10;99.90
25554;DHT22;13446;50.926;5.332;2022-11-20T13:41:57;9.80;99.90
25554;DHT22;13446;50.926;5.332;2022-11-20T13:44:24;9.60;99.90
25554;DHT22;13446;50.926;5.332;2022-11-20T13:46:50;9.50;99.90
25554;DHT22;13446;50.926;5.332;2022-11-20T13:49:17;9.40;99.90
25554;DHT22;13446;50.926;5.332;2022-11-20T14:01:39;9.10;99.90
25554;DHT22;13446;50.926;5.332;2022-11-20T14:04:08;9.10;99.90
25554;DHT22;13446;50.926;5.332;2022-11-20T14:06:41;9.10;99.90
25554;DHT22;13446;50.926;5.332;2022-11-20T14:11:52;9.20;99.90
25554;DHT22;13446;50.926;5.332;2022-11-20T14:14:22;9.30;99.90
25554;DHT22;13446;50.926;5.332;2022-11-20T14:16:48;9.40;99.90
25554;DHT22;13446;50.926;5.332;2022-11-20T14:21:47;9.20;99.90
25554;DHT22;13446;50.926;5.332;2022-11-20T14:24:13;9.20;99.90
25554;DHT22;13446;50.926;5.332;2022-11-20T14:26:42;9.20;99.90
25554;DHT22;13446;50.926;5.332;2022-11-20T14:29:15;9.10;99.90
25554;DHT22;13446;50.926;5.332;2022-11-20T14:31:42;9.10;99.90
25554;DHT22;13446;50.926;5.332;2022-11-20T14:34:22;8.90;99.90
25554;DHT22;13446;50.926;5.332;2022-11-20T14:36:48;8.80;99.90
25554;DHT22;13446;50.926;5.332;2022-11-20T14:39:37;8.90;99.90
25554;DHT22;13446;50.926;5.332;2022-11-20T14:42:10;8.90;99.90
25554;DHT22;13446;50.926;5.332;2022-11-20T14:44:39;8.80;99.90
25554;DHT22;13446;50.926;5.332;2022-11-20T14:47:05;8.70;99.90
25554;DHT22;13446;50.926;5.332;2022-11-20T14:49:32;8.70;99.90
25554;DHT22;13446;50.926;5.332;2022-11-20T14:51:59;8.60;99.90
25554;DHT22;13446;50.926;5.332;2022-11-20T14:54:25;8.50;99.90
25554;DHT22;13446;50.926;5.332;2022-11-20T14:59:28;8.60;99.90
25554;DHT22;13446;50.926;5.332;2022-11-20T15:01:56;8.60;99.90
25554;DHT22;13446;50.926;5.332;2022-11-20T15:04:22;8.50;99.90
25554;DHT22;13446;50.926;5.332;2022-11-20T15:06:51;8.60;99.90
25554;DHT22;13446;50.926;5.332;2022-11-20T15:09:17;8.40;99.90
25554;DHT22;13446;50.926;5.332;2022-11-20T15:11:52;8.50;99.90
25554;DHT22;13446;50.926;5.332;2022-11-20T15:14:18;8.50;99.90
25554;DHT22;13446;50.926;5.332;2022-11-20T15:16:44;8.50;99.90
25554;DHT22;13446;50.926;5.332;2022-11-20T15:19:27;8.40;99.90
25554;DHT22;13446;50.926;5.332;2022-11-20T15:21:53;8.40;99.90
25554;DHT22;13446;50.926;5.332;2022-11-20T15:24:18;8.50;99.90
25554;DHT22;13446;50.926;5.332;2022-11-20T15:26:44;8.40;99.90
25554;DHT22;13446;50.926;5.332;2022-11-20T15:29:14;8.40;99.90
25554;DHT22;13446;50.926;5.332;2022-11-20T15:31:39;8.30;99.90
25554;DHT22;13446;50.926;5.332;2022-11-20T15:34:13;8.40;99.90
25554;DHT22;13446;50.926;5.332;2022-11-20T15:36:40;8.40;99.90
25554;DHT22;13446;50.926;5.332;2022-11-20T15:39:06;8.50;99.90
25554;DHT22;13446;50.926;5.332;2022-11-20T15:41:33;8.50;99.90
25554;DHT22;13446;50.926;5.332;2022-11-20T15:43:58;8.50;99.90
25554;DHT22;13446;50.926;5.332;2022-11-20T15:46:26;8.50;99.90
25554;DHT22;13446;50.926;5.332;2022-11-20T15:48:54;8.50;99.90
25554;DHT22;13446;50.926;5.332;2022-11-20T15:53:46;8.50;99.90
25554;DHT22;13446;50.926;5.332;2022-11-20T15:56:13;8.70;99.90
25554;DHT22;13446;50.926;5.332;2022-11-20T15:58:39;8.70;99.90
25554;DHT22;13446;50.926;5.332;2022-11-20T16:01:04;8.70;99.90
25554;DHT22;13446;50.926;5.332;2022-11-20T16:03:30;8.80;99.90
25554;DHT22;13446;50.926;5.332;2022-11-20T16:05:56;8.90;99.90
25554;DHT22;13446;50.926;5.332;2022-11-20T16:08:21;8.90;99.90
25554;DHT22;13446;50.926;5.332;2022-11-20T16:10:47;8.90;99.90
25554;DHT22;13446;50.926;5.332;2022-11-20T16:13:13;9.00;99.90
25554;DHT22;13446;50.926;5.332;2022-11-20T16:15:58;9.00;99.90
25554;DHT22;13446;50.926;5.332;2022-11-20T16:18:26;9.10;99.90
25554;DHT22;13446;50.926;5.332;2022-11-20T16:20:52;9.10;99.90
25554;DHT22;13446;50.926;5.332;2022-11-20T16:23:18;9.10;99.90
25554;DHT22;13446;50.926;5.332;2022-11-20T16:25:44;9.20;99.90
25554;DHT22;13446;50.926;5.332;2022-11-20T16:28:10;9.20;99.90
25554;DHT22;13446;50.926;5.332;2022-11-20T16:30:35;9.20;99.90
25554;DHT22;13446;50.926;5.332;2022-11-20T16:33:01;9.30;99.90
25554;DHT22;13446;50.926;5.332;2022-11-20T16:35:27;9.20;99.90
25554;DHT22;13446;50.926;5.332;2022-11-20T16:37:53;9.20;99.90
25554;DHT22;13446;50.926;5.332;2022-11-20T16:40:19;9.30;99.90
25554;DHT22;13446;50.926;5.332;2022-11-20T16:42:44;9.30;99.90
25554;DHT22;13446;50.926;5.332;2022-11-20T16:45:11;9.30;99.90
25554;DHT22;13446;50.926;5.332;2022-11-20T16:47:37;9.20;99.90
25554;DHT22;13446;50.926;5.332;2022-11-20T16:50:03;9.30;99.90
25554;DHT22;13446;50.926;5.332;2022-11-20T16:52:30;9.30;99.90
25554;DHT22;13446;50.926;5.332;2022-11-20T16:54:56;9.30;99.90
25554;DHT22;13446;50.926;5.332;2022-11-20T16:57:22;9.30;99.90
25554;DHT22;13446;50.926;5.332;2022-11-20T16:59:47;9.30;99.90
25554;DHT22;13446;50.926;5.332;2022-11-20T17:02:13;9.40;99.90
25554;DHT22;13446;50.926;5.332;2022-11-20T17:04:39;9.50;99.90
25554;DHT22;13446;50.926;5.332;2022-11-20T17:07:05;9.50;99.90
25554;DHT22;13446;50.926;5.332;2022-11-20T17:09:31;9.40;99.90
25554;DHT22;13446;50.926;5.332;2022-11-20T17:11:57;9.30;99.90
25554;DHT22;13446;50.926;5.332;2022-11-20T17:14:22;9.20;99.90
25554;DHT22;13446;50.926;5.332;2022-11-20T17:16:48;9.20;99.90
25554;DHT22;13446;50.926;5.332;2022-11-20T17:19:14;9.20;99.90
25554;DHT22;13446;50.926;5.332;2022-11-20T17:21:41;9.10;99.90
25554;DHT22;13446;50.926;5.332;2022-11-20T17:24:09;9.10;99.90
25554;DHT22;13446;50.926;5.332;2022-11-20T17:26:35;9.10;99.90
25554;DHT22;13446;50.926;5.332;2022-11-20T17:29:11;8.90;99.90
25554;DHT22;13446;50.926;5.332;2022-11-20T17:31:37;8.90;99.90
25554;DHT22;13446;50.926;5.332;2022-11-20T17:34:03;8.90;99.90
25554;DHT22;13446;50.926;5.332;2022-11-20T17:36:29;8.70;99.90
25554;DHT22;13446;50.926;5.332;2022-11-20T17:38:55;8.70;99.90
25554;DHT22;13446;50.926;5.332;2022-11-20T17:41:21;8.70;99.90